Time;durP1;ratioP1;P1;durP2;ratioP2;P2;SDS_P1;SDS_P2;PMS_P1;PMS_P2;Temp;Humidity;BMP_temperature;BMP_pressure;BME280_temperature;BME280_humidity;BME280_pressure;Samples;Min_cycle;Max_cycle;Signal;HPM_P1;HPM_P2
2023/08/24 00:01:24;;;;;;;5.40;4.38;;;15.90;99.90;;;;;;5034669;28;20033;-77
2023/08/24 00:03:49;;;;;;;7.10;4.05;;;15.90;99.90;;;;;;5034768;28;20025;-76
2023/08/24 00:06:16;;;;;;;8.00;4.20;;;15.90;99.90;;;;;;5033741;28;20021;-77
2023/08/24 00:08:42;;;;;;;5.63;4.88;;;15.80;99.90;;;;;;5033401;28;20033;-77
2023/08/24 00:11:08;;;;;;;8.10;6.15;;;15.80;99.90;;;;;;5034339;28;20040;-76
2023/08/24 00:13:33;;;;;;;7.38;5.57;;;15.70;99.90;;;;;;5033233;28;20391;-76
2023/08/24 00:15:59;;;;;;;9.07;5.15;;;15.60;99.90;;;;;;5032750;28;20056;-77
2023/08/24 00:18:25;;;;;;;5.97;5.05;;;15.50;99.90;;;;;;5034356;28;20064;-76
2023/08/24 00:20:51;;;;;;;4.93;4.35;;;15.40;99.90;;;;;;5034217;28;20103;-77
2023/08/24 00:23:17;;;;;;;7.70;5.35;;;15.40;99.90;;;;;;5032890;28;20014;-76
2023/08/24 00:25:42;;;;;;;6.93;5.22;;;15.30;99.90;;;;;;5034329;28;20052;-77
2023/08/24 00:28:08;;;;;;;5.55;4.82;;;15.30;99.90;;;;;;5034289;28;20028;-76
2023/08/24 00:30:34;;;;;;;5.38;4.40;;;15.20;99.90;;;;;;5034029;28;20028;-77
2023/08/24 00:32:59;;;;;;;5.53;4.50;;;15.20;99.90;;;;;;5034198;28;20464;-77
2023/08/24 00:35:25;;;;;;;6.32;4.18;;;15.20;99.90;;;;;;5032695;28;20028;-76
2023/08/24 00:37:54;;;;;;;6.57;4.25;;;15.20;99.90;;;;;;5034517;28;20379;-76
2023/08/24 00:40:19;;;;;;;5.78;4.20;;;15.10;99.90;;;;;;5032246;28;20438;-77
2023/08/24 00:42:46;;;;;;;5.13;4.10;;;15.10;99.90;;;;;;5034022;28;20026;-77
2023/08/24 00:45:13;;;;;;;3.90;3.58;;;15.10;99.90;;;;;;5032243;28;20022;-77
2023/08/24 00:47:46;;;;;;;4.13;3.83;;;15.00;99.90;;;;;;5046774;28;20541;-76
2023/08/24 00:50:13;;;;;;;4.97;4.10;;;15.00;99.90;;;;;;5032408;28;20479;-77
2023/08/24 00:52:40;;;;;;;4.07;3.70;;;15.00;99.90;;;;;;5032699;28;20506;-77
2023/08/24 00:55:07;;;;;;;4.10;3.10;;;15.00;99.90;;;;;;5032228;28;20020;-76
2023/08/24 00:57:35;;;;;;;6.75;3.97;;;14.90;99.90;;;;;;5033616;28;20022;-76
2023/08/24 01:00:05;;;;;;;3.95;3.33;;;14.90;99.90;;;;;;5033421;28;20553;-77
2023/08/24 01:02:31;;;;;;;5.13;3.17;;;14.90;99.90;;;;;;5033188;28;20072;-77
2023/08/24 01:04:58;;;;;;;4.55;4.07;;;14.90;99.90;;;;;;5033447;28;20024;-77
2023/08/24 01:07:24;;;;;;;3.75;3.13;;;14.80;99.90;;;;;;5033379;28;20486;-77
2023/08/24 01:09:50;;;;;;;3.63;3.22;;;14.80;99.90;;;;;;5032325;28;20028;-77
2023/08/24 01:13:07;;;;;;;4.18;3.80;;;14.80;99.90;;;;;;5032858;28;20029;-76
2023/08/24 01:15:37;;;;;;;5.22;4.32;;;14.70;99.90;;;;;;5011800;28;20038;-76
2023/08/24 01:18:11;;;;;;;6.57;4.07;;;14.70;99.90;;;;;;5032781;28;20581;-76
2023/08/24 01:20:38;;;;;;;4.07;3.50;;;14.70;99.90;;;;;;5033162;28;20060;-77
2023/08/24 01:23:41;;;;;;;5.32;3.58;;;14.60;99.90;;;;;;5032826;28;20379;-76
2023/08/24 01:26:14;;;;;;;;;;;14.60;99.90;;;;;;5032393;28;20029;-76
2023/08/24 01:28:41;;;;;;;;;;;14.60;99.90;;;;;;5033532;28;20283;-76
2023/08/24 01:31:07;;;;;;;4.75;4.13;;;14.50;99.90;;;;;;5031774;28;19958;-77
2023/08/24 01:33:33;;;;;;;6.32;5.63;;;14.40;99.90;;;;;;5031448;28;20022;-77
2023/08/24 01:35:59;;;;;;;5.13;4.10;;;14.40;99.90;;;;;;5033176;28;20083;-77
2023/08/24 01:38:25;;;;;;;4.35;3.95;;;14.30;99.90;;;;;;5031528;28;20121;-76
2023/08/24 01:40:57;;;;;;;4.57;4.13;;;14.30;99.90;;;;;;5032894;28;20037;-76
2023/08/24 01:43:29;;;;;;;7.43;3.95;;;14.20;99.90;;;;;;5028624;28;20040;-76
2023/08/24 01:45:56;;;;;;;4.65;3.72;;;14.20;99.90;;;;;;5031809;28;20159;-76
2023/08/24 01:48:22;;;;;;;4.85;2.88;;;14.10;99.90;;;;;;5032810;28;20165;-77
2023/08/24 01:50:49;;;;;;;4.20;3.80;;;14.10;99.90;;;;;;5032954;28;20049;-76
2023/08/24 01:53:15;;;;;;;4.35;3.60;;;14.00;99.90;;;;;;5048044;28;20027;-77
2023/08/24 01:55:41;;;;;;;3.53;3.22;;;14.00;99.90;;;;;;5032916;28;20530;-77
2023/08/24 01:58:07;;;;;;;5.32;3.30;;;14.00;99.90;;;;;;5031188;28;20096;-77
2023/08/24 02:00:33;;;;;;;5.45;3.20;;;13.90;99.90;;;;;;5032557;28;20033;-77
2023/08/24 02:02:59;;;;;;;4.63;2.97;;;13.90;99.90;;;;;;5032504;28;20028;-77
2023/08/24 02:05:27;;;;;;;7.25;3.75;;;14.00;99.90;;;;;;5031460;28;20079;-76
2023/08/24 02:07:54;;;;;;;4.00;3.53;;;13.90;99.90;;;;;;5047232;28;20022;-76
2023/08/24 02:10:19;;;;;;;3.40;3.03;;;13.90;99.90;;;;;;5029169;28;20471;-76
2023/08/24 02:12:45;;;;;;;5.15;3.75;;;13.80;99.90;;;;;;5032561;28;20087;-76
2023/08/24 02:15:10;;;;;;;3.60;3.22;;;13.80;99.90;;;;;;5030876;28;20026;-76
2023/08/24 02:17:36;;;;;;;4.85;3.58;;;13.80;99.90;;;;;;5032429;28;20100;-76
2023/08/24 02:20:03;;;;;;;3.35;3.15;;;13.80;99.90;;;;;;5031286;28;20037;-77
2023/08/24 02:22:30;;;;;;;5.00;3.45;;;13.80;99.90;;;;;;5031018;28;20049;-77
2023/08/24 02:24:55;;;;;;;4.50;3.50;;;13.80;99.90;;;;;;5031131;28;20026;-77
2023/08/24 02:27:21;;;;;;;5.07;3.60;;;13.70;99.90;;;;;;5031736;28;20026;-77
2023/08/24 02:29:47;;;;;;;2.75;2.47;;;13.70;99.90;;;;;;5032140;28;20430;-77
2023/08/24 02:32:12;;;;;;;2.80;2.58;;;13.60;99.90;;;;;;5032398;28;20029;-77
2023/08/24 02:34:38;;;;;;;3.25;2.65;;;13.60;99.90;;;;;;5033439;28;20108;-76
2023/08/24 02:37:04;;;;;;;4.05;2.83;;;13.50;99.90;;;;;;5034904;28;20068;-77
2023/08/24 02:39:30;;;;;;;3.70;2.85;;;13.50;99.90;;;;;;5036296;28;20061;-76
2023/08/24 02:41:55;;;;;;;2.95;2.72;;;13.50;99.90;;;;;;5034801;28;20056;-77
2023/08/24 02:44:21;;;;;;;4.10;2.70;;;13.40;99.90;;;;;;5035801;28;20017;-76
2023/08/24 02:46:48;;;;;;;3.95;3.42;;;13.40;99.90;;;;;;5036166;28;20144;-76
2023/08/24 02:49:14;;;;;;;5.82;3.38;;;13.40;99.90;;;;;;5034620;28;20125;-76
2023/08/24 02:51:40;;;;;;;3.47;3.05;;;13.40;99.90;;;;;;5036269;28;20600;-76
2023/08/24 02:54:06;;;;;;;3.97;2.78;;;13.40;99.90;;;;;;5034816;28;20079;-77
2023/08/24 02:56:32;;;;;;;3.45;3.15;;;13.30;99.90;;;;;;5034819;28;20013;-76
2023/08/24 02:58:57;;;;;;;3.75;3.40;;;13.30;99.90;;;;;;5034385;28;20505;-76
2023/08/24 03:01:23;;;;;;;3.58;3.00;;;13.30;99.90;;;;;;5023509;28;20013;-77
2023/08/24 03:03:49;;;;;;;2.03;1.92;;;13.30;99.90;;;;;;5033505;28;20023;-76
2023/08/24 03:06:15;;;;;;;2.20;2.10;;;13.30;99.90;;;;;;5023478;28;20495;-76
2023/08/24 03:08:40;;;;;;;2.60;2.10;;;13.20;99.90;;;;;;5035529;28;20035;-77
2023/08/24 03:11:06;;;;;;;1.70;1.60;;;13.10;99.90;;;;;;5035650;28;20120;-76
2023/08/24 03:13:33;;;;;;;2.78;2.00;;;13.10;99.90;;;;;;5035493;28;20100;-77
2023/08/24 03:16:04;;;;;;;4.75;2.75;;;13.10;99.90;;;;;;5035416;28;20080;-76
2023/08/24 03:18:30;;;;;;;3.00;2.15;;;13.00;99.90;;;;;;5033674;28;20033;-76
2023/08/24 03:20:56;;;;;;;9.50;2.90;;;13.00;99.90;;;;;;5034264;28;20132;-76
2023/08/24 03:23:22;;;;;;;3.40;2.75;;;13.00;99.90;;;;;;5034059;28;20481;-76
2023/08/24 03:25:47;;;;;;;2.13;2.03;;;13.00;99.90;;;;;;5035661;28;20057;-76
2023/08/24 03:28:13;;;;;;;2.75;2.50;;;13.00;99.90;;;;;;5033883;28;20467;-76
2023/08/24 03:30:44;;;;;;;2.63;2.42;;;12.90;99.90;;;;;;5035325;28;20029;-77
2023/08/24 03:33:10;;;;;;;5.80;2.70;;;12.90;99.90;;;;;;5033651;28;20025;-76
2023/08/24 03:35:36;;;;;;;3.25;2.35;;;12.90;99.90;;;;;;5035338;28;20013;-76
2023/08/24 03:38:01;;;;;;;2.70;2.50;;;12.80;99.90;;;;;;5035041;28;20028;-76
2023/08/24 03:40:27;;;;;;;5.00;2.60;;;12.80;99.90;;;;;;5034063;28;20079;-77
2023/08/24 03:42:53;;;;;;;4.10;3.10;;;12.80;99.90;;;;;;5033667;28;20018;-76
2023/08/24 03:45:19;;;;;;;6.53;3.83;;;12.80;99.90;;;;;;5034891;28;20022;-77
2023/08/24 03:47:45;;;;;;;4.75;3.83;;;12.80;99.90;;;;;;5034585;28;20022;-77
2023/08/24 03:50:11;;;;;;;4.15;3.75;;;12.80;99.90;;;;;;5034896;28;20044;-76
2023/08/24 03:52:36;;;;;;;5.88;3.78;;;12.80;99.90;;;;;;5033641;28;20103;-76
2023/08/24 03:55:02;;;;;;;5.55;3.70;;;12.80;99.90;;;;;;5034999;28;20104;-76
2023/08/24 03:57:28;;;;;;;5.22;4.30;;;12.80;99.90;;;;;;5033388;28;20025;-75
2023/08/24 03:59:53;;;;;;;5.13;3.92;;;12.80;99.90;;;;;;5033867;28;20018;-75
2023/08/24 04:02:19;;;;;;;3.75;3.38;;;12.80;99.90;;;;;;5048582;28;20018;-76
2023/08/24 04:04:46;;;;;;;4.70;2.58;;;12.80;99.90;;;;;;5034766;28;20014;-77
2023/08/24 04:07:11;;;;;;;1.65;1.40;;;12.80;99.90;;;;;;5034610;28;20029;-76
2023/08/24 04:09:37;;;;;;;2.10;1.90;;;12.70;99.90;;;;;;5034977;28;20041;-76
2023/08/24 04:12:03;;;;;;;1.98;1.88;;;12.70;99.90;;;;;;5034353;28;20096;-75
2023/08/24 04:14:28;;;;;;;2.30;2.15;;;12.60;99.90;;;;;;5034562;28;20399;-76
2023/08/24 04:16:54;;;;;;;2.40;2.20;;;12.60;99.90;;;;;;5032790;28;20054;-77
2023/08/24 04:19:20;;;;;;;4.50;3.53;;;12.60;99.90;;;;;;5033122;28;20601;-77
2023/08/24 04:21:45;;;;;;;3.10;2.90;;;12.60;99.90;;;;;;5034203;28;20021;-76
2023/08/24 04:24:11;;;;;;;3.47;2.92;;;12.60;99.90;;;;;;5033154;28;20025;-76
2023/08/24 04:26:36;;;;;;;3.42;3.13;;;12.70;99.90;;;;;;5034349;28;20096;-77
2023/08/24 04:29:02;;;;;;;3.70;3.40;;;12.80;99.90;;;;;;5032830;28;20033;-76
2023/08/24 04:31:28;;;;;;;5.00;3.30;;;12.90;99.90;;;;;;5033690;28;20025;-76
2023/08/24 04:33:53;;;;;;;4.30;2.90;;;13.00;99.90;;;;;;5034244;28;20053;-77
2023/08/24 04:36:19;;;;;;;3.63;3.20;;;13.10;99.90;;;;;;5033925;28;20018;-76
2023/08/24 04:38:44;;;;;;;3.40;3.10;;;13.20;99.90;;;;;;5033874;28;20025;-76
2023/08/24 04:41:12;;;;;;;3.97;3.58;;;13.20;99.90;;;;;;5033367;28;20057;-76
2023/08/24 04:43:37;;;;;;;5.03;3.75;;;13.30;99.90;;;;;;5032251;28;20470;-77
2023/08/24 04:46:03;;;;;;;4.43;4.03;;;13.40;99.90;;;;;;5026581;28;20029;-77
2023/08/24 04:48:34;;;;;;;5.15;3.88;;;13.50;99.90;;;;;;5030020;28;20026;-76
2023/08/24 04:51:00;;;;;;;9.07;3.47;;;13.60;99.90;;;;;;5031596;28;20034;-76
2023/08/24 04:53:26;;;;;;;3.80;3.33;;;13.70;99.90;;;;;;5026469;28;20026;-76
2023/08/24 04:55:52;;;;;;;5.90;4.07;;;13.80;99.90;;;;;;5033063;28;20529;-76
2023/08/24 04:58:18;;;;;;;4.22;3.78;;;14.00;99.90;;;;;;5031901;28;20025;-77
2023/08/24 05:00:44;;;;;;;6.05;3.85;;;14.10;99.90;;;;;;5032325;28;20083;-76
2023/08/24 05:03:10;;;;;;;4.75;3.80;;;14.30;99.90;;;;;;5027731;28;20109;-76
2023/08/24 05:05:36;;;;;;;4.78;3.80;;;14.40;99.90;;;;;;5026485;28;20548;-76
2023/08/24 05:08:09;;;;;;;5.43;4.00;;;14.50;99.90;;;;;;5020284;28;20387;-77
2023/08/24 05:10:35;;;;;;;4.13;3.72;;;14.60;99.90;;;;;;5033278;28;20506;-77
2023/08/24 05:13:01;;;;;;;4.97;3.75;;;14.70;99.90;;;;;;5024586;28;20022;-77
2023/08/24 05:15:27;;;;;;;6.18;3.53;;;14.70;99.90;;;;;;5032888;28;20022;-76
2023/08/24 05:17:56;;;;;;;4.28;3.63;;;14.80;99.90;;;;;;5026660;28;20052;-76
2023/08/24 05:20:27;;;;;;;4.10;3.70;;;14.90;99.90;;;;;;5031598;28;20080;-76
2023/08/24 05:22:56;;;;;;;4.43;4.03;;;15.00;99.90;;;;;;5030792;28;20032;-77
2023/08/24 05:25:22;;;;;;;5.13;4.35;;;15.10;99.90;;;;;;5033065;28;20017;-77
2023/08/24 05:27:48;;;;;;;5.25;3.72;;;15.30;99.90;;;;;;5031238;28;20026;-77
2023/08/24 05:30:14;;;;;;;5.70;4.20;;;15.40;99.90;;;;;;5032806;28;20034;-77
2023/08/24 05:32:39;;;;;;;9.65;4.93;;;15.60;99.90;;;;;;5031688;28;20025;-77
2023/08/24 05:35:06;;;;;;;6.45;4.10;;;15.60;99.90;;;;;;5032684;28;20025;-78
2023/08/24 05:37:32;;;;;;;4.28;3.88;;;15.70;99.90;;;;;;5031061;28;20021;-77
2023/08/24 05:39:58;;;;;;;4.45;4.00;;;15.90;99.90;;;;;;5031524;28;20021;-77
2023/08/24 05:42:24;;;;;;;4.85;4.13;;;16.10;99.90;;;;;;5031724;28;20100;-78
2023/08/24 05:44:50;;;;;;;5.22;4.50;;;16.30;99.90;;;;;;5031505;28;20028;-79
2023/08/24 05:47:15;;;;;;;11.18;4.13;;;16.50;99.90;;;;;;5031730;28;20044;-77
2023/08/24 05:49:41;;;;;;;8.85;4.10;;;16.70;99.90;;;;;;5031022;28;20399;-78
2023/08/24 05:52:06;;;;;;;6.10;4.53;;;16.90;99.90;;;;;;5031506;28;20029;-80
2023/08/24 05:54:32;;;;;;;5.40;3.88;;;17.10;99.90;;;;;;5030033;28;20010;-78
2023/08/24 05:57:00;;;;;;;7.32;3.63;;;17.30;99.90;;;;;;5029282;28;20124;-78
2023/08/24 05:59:26;;;;;;;8.57;4.07;;;17.60;99.90;;;;;;5029322;28;20115;-80
2023/08/24 06:01:52;;;;;;;5.25;4.20;;;17.80;99.90;;;;;;5029268;28;20391;-80
2023/08/24 06:04:17;;;;;;;8.82;3.30;;;18.00;99.90;;;;;;5030332;28;20022;-80
2023/08/24 06:06:43;;;;;;;5.80;3.33;;;18.20;99.90;;;;;;5029190;28;20029;-78
2023/08/24 06:09:09;;;;;;;7.20;4.03;;;18.50;99.90;;;;;;5029373;28;20388;-78
2023/08/24 06:11:35;;;;;;;7.55;4.43;;;18.70;99.90;;;;;;5031122;28;20017;-75
2023/08/24 06:14:01;;;;;;;8.00;4.53;;;18.90;99.90;;;;;;5032210;28;20028;-75
2023/08/24 06:16:27;;;;;;;7.57;4.47;;;19.00;95.90;;;;;;5032317;28;20037;-75
2023/08/24 06:18:53;;;;;;;10.07;5.28;;;19.30;94.90;;;;;;5030780;28;20018;-78
2023/08/24 06:21:19;;;;;;;8.68;5.63;;;19.50;94.40;;;;;;5030016;28;20490;-78
2023/08/24 06:23:44;;;;;;;13.00;6.32;;;19.70;93.00;;;;;;5029929;28;20426;-78
2023/08/24 06:26:10;;;;;;;10.07;5.93;;;19.70;89.00;;;;;;5030113;28;20064;-75
2023/08/24 06:28:36;;;;;;;8.00;6.50;;;19.90;89.20;;;;;;5029099;28;20024;-75
2023/08/24 06:31:01;;;;;;;10.02;6.57;;;20.00;89.60;;;;;;5031405;28;20041;-75
2023/08/24 06:33:30;;;;;;;11.40;6.80;;;20.10;90.50;;;;;;5020298;28;20071;-75
2023/08/24 06:35:57;;;;;;;12.80;7.55;;;20.20;89.00;;;;;;5031817;28;20490;-75
2023/08/24 06:38:22;;;;;;;15.90;8.63;;;20.40;91.80;;;;;;5032126;28;20518;-75
2023/08/24 06:40:48;;;;;;;13.88;8.63;;;20.50;89.10;;;;;;5030506;28;20021;-75
2023/08/24 06:43:14;;;;;;;11.98;8.45;;;20.60;87.80;;;;;;5027763;28;20022;-75
2023/08/24 06:45:41;;;;;;;11.15;8.05;;;20.70;88.70;;;;;;5020639;28;20033;-75
2023/08/24 06:48:07;;;;;;;17.33;9.48;;;20.80;88.90;;;;;;5027365;28;20521;-75
2023/08/24 06:50:33;;;;;;;17.60;9.43;;;21.00;88.90;;;;;;5024297;28;20033;-79
2023/08/24 06:52:59;;;;;;;19.13;10.40;;;21.10;86.60;;;;;;5019945;28;20128;-79
2023/08/24 06:55:27;;;;;;;15.68;9.48;;;21.30;87.40;;;;;;5032150;28;20482;-75
2023/08/24 06:57:56;;;;;;;14.55;8.85;;;21.50;87.60;;;;;;5032391;28;20022;-79
2023/08/24 07:00:22;;;;;;;16.33;10.00;;;21.60;85.60;;;;;;5032416;28;20083;-79
2023/08/24 07:02:49;;;;;;;15.15;9.25;;;21.80;83.90;;;;;;5031310;28;20037;-79
2023/08/24 07:05:18;;;;;;;14.57;9.68;;;21.90;84.50;;;;;;5032168;28;20022;-78
2023/08/24 07:07:45;;;;;;;12.38;7.95;;;21.90;79.10;;;;;;5032169;28;20463;-75
2023/08/24 07:10:11;;;;;;;10.50;7.68;;;21.90;76.10;;;;;;5031615;28;20395;-75
2023/08/24 07:12:40;;;;;;;15.02;8.48;;;22.00;74.00;;;;;;5030873;28;20014;-75
2023/08/24 07:15:09;;;;;;;13.15;7.45;;;22.10;73.60;;;;;;5030740;28;20433;-75
2023/08/24 07:17:35;;;;;;;14.27;7.22;;;22.20;71.60;;;;;;5031887;28;20053;-75
2023/08/24 07:20:00;;;;;;;9.88;6.90;;;22.40;73.00;;;;;;5032922;28;20021;-75
2023/08/24 07:22:26;;;;;;;11.48;7.80;;;22.50;72.70;;;;;;5035378;28;20036;-79
2023/08/24 07:24:52;;;;;;;10.05;7.15;;;22.70;72.60;;;;;;5034381;28;20079;-79
2023/08/24 07:27:18;;;;;;;11.73;7.25;;;22.80;72.40;;;;;;5033619;28;20098;-75
2023/08/24 07:29:44;;;;;;;9.35;7.30;;;22.90;71.80;;;;;;5035096;28;20132;-80
2023/08/24 07:32:10;;;;;;;11.55;7.72;;;23.00;71.30;;;;;;5030586;28;20100;-76
2023/08/24 07:34:35;;;;;;;14.18;7.45;;;23.10;71.30;;;;;;5022289;28;20085;-76
2023/08/24 07:37:01;;;;;;;13.95;7.53;;;23.30;71.00;;;;;;5033502;28;20040;-80
2023/08/24 07:39:27;;;;;;;11.00;6.65;;;23.40;69.70;;;;;;5035307;28;20040;-76
2023/08/24 07:41:52;;;;;;;11.52;7.40;;;23.50;69.30;;;;;;5033663;28;20025;-76
2023/08/24 07:44:18;;;;;;;8.38;6.43;;;23.60;68.90;;;;;;5036783;28;20036;-76
2023/08/24 07:46:44;;;;;;;11.05;5.68;;;23.50;67.00;;;;;;5035087;28;20083;-80
2023/08/24 07:49:10;;;;;;;8.30;5.80;;;23.70;68.50;;;;;;5034414;28;20028;-75
2023/08/24 07:51:36;;;;;;;7.22;5.70;;;23.90;68.80;;;;;;5035076;28;20112;-75
2023/08/24 07:54:04;;;;;;;10.10;6.43;;;24.10;68.80;;;;;;5035058;28;20060;-75
2023/08/24 07:56:30;;;;;;;11.95;6.70;;;24.00;64.80;;;;;;5035038;28;20101;-81
2023/08/24 07:58:55;;;;;;;9.38;6.95;;;24.10;66.20;;;;;;5033390;28;20112;-77
2023/08/24 08:01:21;;;;;;;7.93;5.88;;;24.20;67.00;;;;;;5034981;28;20029;-80
2023/08/24 08:03:47;;;;;;;8.07;6.05;;;24.40;67.20;;;;;;5034860;28;20018;-80
2023/08/24 08:06:13;;;;;;;9.07;5.82;;;24.50;65.90;;;;;;5025136;28;20018;-77
2023/08/24 08:08:39;;;;;;;8.90;5.50;;;24.50;62.90;;;;;;5033287;28;20025;-77
2023/08/24 08:11:05;;;;;;;6.75;4.90;;;24.50;63.80;;;;;;5033469;28;20506;-81
2023/08/24 08:13:30;;;;;;;6.80;4.00;;;24.60;62.80;;;;;;5033134;28;20044;-80
2023/08/24 08:16:06;;;;;;;7.68;4.38;;;24.70;58.90;;;;;;5034141;28;20070;-81
2023/08/24 08:18:33;;;;;;;9.73;5.85;;;24.70;57.80;;;;;;5034228;28;20451;-76
2023/08/24 08:20:58;;;;;;;11.38;4.65;;;24.60;56.80;;;;;;5033282;28;20340;-81
2023/08/24 08:23:24;;;;;;;8.55;5.22;;;24.60;55.90;;;;;;5033468;28;20025;-80
2023/08/24 08:25:50;;;;;;;9.88;6.80;;;24.80;56.90;;;;;;5029921;28;20034;-81
2023/08/24 08:28:17;;;;;;;10.68;6.38;;;24.90;55.60;;;;;;5027397;28;20048;-81
2023/08/24 08:30:43;;;;;;;9.82;6.35;;;25.00;55.80;;;;;;5031819;28;20491;-81
2023/08/24 08:33:09;;;;;;;4.05;2.80;;;25.00;55.00;;;;;;5024247;28;20045;-80
2023/08/24 08:35:34;;;;;;;5.45;3.22;;;24.90;53.10;;;;;;5026563;28;20056;-81
2023/08/24 08:38:00;;;;;;;6.78;4.30;;;25.00;51.50;;;;;;5028285;28;20025;-81
2023/08/24 08:40:30;;;;;;;4.05;3.00;;;25.10;52.40;;;;;;5031172;28;20034;-80
2023/08/24 08:42:59;;;;;;;4.80;3.47;;;24.90;51.40;;;;;;5031457;28;20498;-80
2023/08/24 08:45:28;;;;;;;8.13;3.28;;;25.00;51.10;;;;;;5030415;28;20095;-77
2023/08/24 08:48:01;;;;;;;9.80;3.50;;;25.20;50.70;;;;;;5030816;28;20024;-77
2023/08/24 08:50:28;;;;;;;5.20;3.70;;;25.30;51.50;;;;;;5024603;28;20042;-80
2023/08/24 08:52:53;;;;;;;5.88;3.88;;;25.30;53.60;;;;;;5031572;28;20423;-80
2023/08/24 08:55:20;;;;;;;5.03;2.38;;;25.30;53.00;;;;;;5042533;28;20064;-80
2023/08/24 08:57:49;;;;;;;3.33;2.20;;;25.30;49.60;;;;;;5032790;28;20463;-77
2023/08/24 09:00:18;;;;;;;6.65;3.50;;;25.50;48.50;;;;;;5029289;28;20108;-81
2023/08/24 09:02:45;;;;;;;5.78;4.40;;;25.50;49.50;;;;;;5030844;28;20422;-77
2023/08/24 09:05:12;;;;;;;6.18;4.13;;;25.50;50.80;;;;;;5030440;28;20022;-77
2023/08/24 09:07:39;;;;;;;8.68;4.90;;;25.50;51.10;;;;;;5029508;28;20093;-77
2023/08/24 09:10:07;;;;;;;5.55;4.43;;;25.60;51.60;;;;;;5026947;28;20045;-77
2023/08/24 09:12:33;;;;;;;6.80;4.60;;;25.80;52.70;;;;;;5031216;28;20052;-77
2023/08/24 09:14:59;;;;;;;7.40;5.22;;;26.00;53.70;;;;;;5027650;28;20054;-77
2023/08/24 09:17:24;;;;;;;8.00;4.55;;;26.10;54.70;;;;;;5029580;28;20147;-77
2023/08/24 09:19:57;;;;;;;7.50;4.57;;;26.30;54.30;;;;;;5030418;28;20045;-77
2023/08/24 09:22:23;;;;;;;7.55;4.57;;;26.40;53.70;;;;;;5030021;28;20053;-81
2023/08/24 09:24:51;;;;;;;9.55;4.70;;;26.50;53.10;;;;;;5031731;28;20041;-80
2023/08/24 09:27:21;;;;;;;6.22;4.15;;;26.70;52.50;;;;;;5032993;28;20033;-77
2023/08/24 09:29:51;;;;;;;4.22;3.00;;;26.70;51.60;;;;;;5030612;28;20109;-77
2023/08/24 09:32:31;;;;;;;7.68;3.45;;;26.40;49.90;;;;;;5014682;28;20030;-78
2023/08/24 09:35:11;;;;;;;4.40;3.47;;;26.30;49.20;;;;;;5016452;28;20025;-78
2023/08/24 09:37:38;;;;;;;3.78;2.63;;;26.50;50.70;;;;;;5022075;28;20096;-78
2023/08/24 09:40:08;;;;;;;9.50;3.65;;;26.60;50.20;;;;;;5031741;28;20034;-78
2023/08/24 09:42:41;;;;;;;5.60;2.95;;;26.70;49.00;;;;;;5021678;28;20095;-78
2023/08/24 09:45:10;;;;;;;5.40;3.35;;;26.70;47.90;;;;;;5030125;28;20505;-78
2023/08/24 09:47:37;;;;;;;8.88;3.30;;;26.90;49.40;;;;;;5025766;28;20071;-78
2023/08/24 09:50:03;;;;;;;5.57;3.15;;;26.70;48.40;;;;;;5025385;28;20052;-78
2023/08/24 09:52:32;;;;;;;4.13;2.83;;;26.80;47.90;;;;;;5021101;28;20072;-78
2023/08/24 09:55:04;;;;;;;5.90;2.95;;;26.80;48.30;;;;;;5026708;28;20107;-75
2023/08/24 09:57:32;;;;;;;4.82;2.45;;;26.90;49.10;;;;;;5024891;28;20518;-75
2023/08/24 09:59:58;;;;;;;5.18;3.25;;;27.10;49.40;;;;;;5027412;28;20041;-75
2023/08/24 10:02:30;;;;;;;3.40;2.33;;;27.30;49.40;;;;;;5029319;28;20387;-76
2023/08/24 10:04:57;;;;;;;2.35;2.13;;;26.90;45.20;;;;;;5029695;28;20021;-76
2023/08/24 10:07:24;;;;;;;3.85;2.58;;;26.80;45.10;;;;;;5019764;28;20041;-76
2023/08/24 10:10:14;;;;;;;3.85;2.33;;;26.80;44.80;;;;;;5025675;28;20482;-77
2023/08/24 10:12:47;;;;;;;4.07;2.38;;;26.60;45.00;;;;;;5028010;28;20044;-76
2023/08/24 10:15:13;;;;;;;2.40;2.20;;;26.60;45.20;;;;;;5029794;28;20487;-76
2023/08/24 10:17:39;;;;;;;2.53;2.30;;;26.80;45.30;;;;;;5030880;28;20052;-76
2023/08/24 10:20:08;;;;;;;3.78;2.38;;;26.80;45.70;;;;;;5031246;28;20087;-76
2023/08/24 10:22:35;;;;;;;2.38;2.03;;;26.70;45.00;;;;;;5031334;28;20025;-76
2023/08/24 10:25:02;;;;;;;3.85;2.63;;;26.80;45.10;;;;;;5030805;28;20026;-76
2023/08/24 10:27:29;;;;;;;3.42;2.25;;;27.10;46.90;;;;;;5029688;28;20034;-76
2023/08/24 10:29:55;;;;;;;2.72;2.50;;;27.20;46.80;;;;;;5007083;28;20032;-76
2023/08/24 10:32:23;;;;;;;3.40;2.28;;;27.40;46.70;;;;;;5023973;28;20041;-76
2023/08/24 10:34:50;;;;;;;3.38;2.20;;;27.40;45.80;;;;;;5031596;28;20098;-76
2023/08/24 10:37:16;;;;;;;2.40;2.20;;;27.50;45.50;;;;;;5029343;28;20029;-76
2023/08/24 10:39:46;;;;;;;4.00;2.53;;;27.60;46.30;;;;;;5029650;28;21631;-76
2023/08/24 10:42:12;;;;;;;4.18;2.67;;;27.60;46.20;;;;;;5015752;28;20038;-76
2023/08/24 10:44:40;;;;;;;2.65;2.40;;;27.30;44.00;;;;;;5026149;28;20519;-76
2023/08/24 10:47:15;;;;;;;3.47;2.50;;;27.40;43.90;;;;;;5027809;28;20037;-76
2023/08/24 10:49:42;;;;;;;4.03;2.42;;;27.30;45.30;;;;;;5045931;28;20029;-76
2023/08/24 10:52:25;;;;;;;4.07;2.70;;;27.20;44.30;;;;;;5024023;28;20572;-76
2023/08/24 10:54:52;;;;;;;2.63;2.20;;;27.20;44.80;;;;;;5028858;28;20487;-76
2023/08/24 10:57:22;;;;;;;7.05;2.63;;;27.20;44.90;;;;;;5029195;28;20040;-76
2023/08/24 11:00:05;;;;;;;3.65;2.78;;;27.40;46.00;;;;;;5033279;28;20039;-76
2023/08/24 11:02:41;;;;;;;3.58;2.40;;;27.50;46.30;;;;;;5034689;28;20038;-77
2023/08/24 11:05:19;;;;;;;5.00;2.53;;;27.50;46.20;;;;;;5037444;28;20387;-76
2023/08/24 11:08:04;;;;;;;5.93;2.88;;;27.40;45.60;;;;;;5032763;28;20489;-76
2023/08/24 11:10:42;;;;;;;3.65;2.83;;;27.30;45.40;;;;;;5030168;28;20033;-75
2023/08/24 11:13:14;;;;;;;3.60;2.50;;;27.30;45.30;;;;;;5033537;28;20101;-75
2023/08/24 11:15:43;;;;;;;4.32;2.60;;;27.50;45.80;;;;;;5034920;28;20022;-76
2023/08/24 11:18:42;;;;;;;5.38;2.80;;;27.40;45.60;;;;;;5034681;28;20056;-75
2023/08/24 11:21:08;;;;;;;4.07;2.60;;;27.20;44.70;;;;;;5021675;28;20146;-76
2023/08/24 11:23:35;;;;;;;2.67;2.25;;;27.30;46.40;;;;;;5033398;28;20010;-76
2023/08/24 11:26:01;;;;;;;6.35;2.78;;;27.40;46.20;;;;;;5033855;28;20045;-75
2023/08/24 11:28:29;;;;;;;7.72;3.22;;;27.30;45.50;;;;;;5034610;28;20063;-76
2023/08/24 11:30:56;;;;;;;3.95;2.55;;;27.30;45.30;;;;;;5032195;28;20025;-76
2023/08/24 11:33:32;;;;;;;3.97;2.72;;;27.50;46.10;;;;;;5034373;28;20364;-76
2023/08/24 11:35:59;;;;;;;5.20;2.53;;;27.60;44.60;;;;;;5034328;28;20072;-77
2023/08/24 11:38:25;;;;;;;5.38;2.90;;;27.80;43.90;;;;;;5033067;28;20106;-76
2023/08/24 11:40:51;;;;;;;4.72;2.47;;;27.80;43.70;;;;;;5034555;28;20114;-76
2023/08/24 11:43:26;;;;;;;2.75;2.53;;;27.80;43.90;;;;;;5032671;28;20017;-77
2023/08/24 11:45:54;;;;;;;5.40;3.42;;;27.80;44.80;;;;;;5049855;28;20025;-76
2023/08/24 11:48:24;;;;;;;4.97;3.22;;;28.00;45.00;;;;;;5032562;28;20017;-77
2023/08/24 11:50:50;;;;;;;3.63;3.28;;;28.20;46.00;;;;;;5040850;28;20021;-79
2023/08/24 11:53:17;;;;;;;5.38;3.13;;;28.00;45.60;;;;;;5033870;28;20044;-79
2023/08/24 11:55:43;;;;;;;3.35;2.72;;;28.10;44.30;;;;;;5034381;28;20100;-79
2023/08/24 11:58:17;;;;;;;5.85;3.75;;;27.70;43.90;;;;;;5033916;28;20030;-76
2023/08/24 12:00:44;;;;;;;7.05;2.80;;;27.50;45.20;;;;;;5032978;28;20117;-76
2023/08/24 12:03:10;;;;;;;4.57;2.42;;;27.50;45.70;;;;;;5034422;28;20025;-76
2023/08/24 12:05:36;;;;;;;5.00;2.53;;;27.60;45.40;;;;;;5032827;28;20387;-79
2023/08/24 12:08:02;;;;;;;5.95;2.80;;;27.70;45.30;;;;;;5032889;28;20029;-76
2023/08/24 12:10:28;;;;;;;4.60;2.80;;;27.70;45.20;;;;;;5033942;28;20017;-77
2023/08/24 12:13:05;;;;;;;4.03;2.67;;;27.70;45.40;;;;;;5033384;28;20045;-78
2023/08/24 12:15:34;;;;;;;6.55;2.85;;;27.80;45.00;;;;;;5030442;28;20033;-78
2023/08/24 12:18:07;;;;;;;2.70;2.50;;;27.80;44.60;;;;;;5034194;28;20064;-78
2023/08/24 12:20:33;;;;;;;4.45;2.90;;;27.90;44.70;;;;;;5034360;28;20045;-76
2023/08/24 12:22:59;;;;;;;9.70;2.58;;;28.00;44.40;;;;;;5034386;28;20025;-76
2023/08/24 12:25:25;;;;;;;5.05;2.85;;;28.00;44.00;;;;;;5033998;28;20021;-76
2023/08/24 12:28:10;;;;;;;2.92;2.22;;;28.10;43.90;;;;;;5032710;28;20046;-76
2023/08/24 12:30:52;;;;;;;5.32;2.67;;;28.20;44.40;;;;;;5032624;28;20075;-76
2023/08/24 12:33:29;;;;;;;4.57;2.38;;;28.40;44.80;;;;;;5031131;28;20029;-79
2023/08/24 12:35:55;;;;;;;4.53;2.53;;;28.50;44.40;;;;;;5031340;28;20454;-79
2023/08/24 12:38:22;;;;;;;4.93;2.60;;;28.40;43.80;;;;;;5032532;28;20033;-76
2023/08/24 12:40:48;;;;;;;3.92;2.10;;;28.40;43.80;;;;;;5033261;28;20132;-76
2023/08/24 12:43:14;;;;;;;8.50;3.28;;;28.50;43.80;;;;;;5032634;28;20418;-76
2023/08/24 12:45:40;;;;;;;10.07;2.70;;;28.40;44.50;;;;;;5032674;28;20036;-76
2023/08/24 12:48:09;;;;;;;4.25;2.60;;;28.30;43.90;;;;;;5033684;28;20022;-76